createdAt,value
2017-08-19T06:00:18.327Z,92.30
2017-08-19T06:02:46.667Z,92.00
2017-08-19T06:05:15.039Z,93.70
2017-08-19T06:07:43.321Z,94.10
2017-08-19T06:10:11.698Z,94.40
2017-08-19T06:12:39.975Z,94.80
2017-08-19T06:15:08.866Z,94.20
2017-08-19T06:17:37.247Z,94.10
2017-08-19T06:20:05.523Z,93.20
2017-08-19T06:22:33.816Z,92.90
2017-08-19T06:25:02.094Z,93.00
2017-08-19T06:27:30.461Z,93.00
2017-08-19T06:29:58.736Z,93.60
2017-08-19T06:32:27.025Z,93.00
2017-08-19T06:34:56.271Z,93.80
2017-08-19T06:37:25.429Z,93.70
2017-08-19T06:39:53.783Z,93.70
2017-08-19T06:42:22.076Z,94.10
2017-08-19T06:44:50.334Z,94.40
2017-08-19T06:47:18.715Z,94.20
2017-08-19T06:49:47.007Z,94.40
2017-08-19T06:52:15.386Z,94.50
2017-08-19T06:54:43.642Z,94.40
2017-08-19T06:57:11.922Z,94.30
2017-08-19T06:59:40.198Z,94.10
2017-08-19T07:02:08.566Z,93.80
2017-08-19T07:04:37.774Z,93.60
2017-08-19T07:07:06.151Z,93.40
2017-08-19T07:09:34.763Z,93.80
2017-08-19T07:12:03.042Z,94.00
2017-08-19T07:14:31.391Z,93.70
2017-08-19T07:16:59.688Z,92.30
2017-08-19T07:19:27.946Z,92.40
2017-08-19T07:21:56.274Z,91.90
2017-08-19T07:24:24.530Z,91.30
2017-08-19T07:26:52.879Z,90.20
2017-08-19T07:29:21.159Z,90.20
2017-08-19T07:31:49.463Z,90.00
2017-08-19T07:34:18.483Z,87.70
2017-08-19T07:36:46.741Z,87.70
2017-08-19T07:39:15.902Z,90.50
2017-08-19T07:41:44.274Z,90.50
2017-08-19T07:44:12.550Z,90.20
2017-08-19T07:46:40.929Z,90.40
2017-08-19T07:49:09.310Z,90.60
2017-08-19T07:51:37.587Z,91.00
2017-08-19T07:54:05.963Z,90.60
2017-08-19T07:56:34.210Z,91.00
2017-08-19T07:59:02.514Z,91.10
2017-08-19T08:01:30.771Z,91.10
2017-08-19T08:03:59.051Z,91.80
2017-08-19T08:06:27.306Z,91.80
2017-08-19T08:08:55.587Z,91.30
2017-08-19T08:11:23.900Z,91.00
2017-08-19T08:13:52.178Z,90.40
2017-08-19T08:16:20.470Z,90.10
2017-08-19T08:18:48.744Z,89.40
2017-08-19T08:21:17.239Z,89.20
2017-08-19T08:23:45.587Z,86.00
2017-08-19T08:26:13.843Z,86.80
2017-08-19T08:28:42.142Z,87.90
2017-08-19T08:31:10.422Z,85.10
2017-08-19T08:33:38.814Z,85.70
2017-08-19T08:36:07.074Z,82.70
2017-08-19T08:38:35.451Z,83.10
2017-08-19T08:41:03.722Z,83.70
2017-08-19T08:43:32.007Z,78.40
2017-08-19T08:46:00.287Z,77.80
2017-08-19T08:48:28.678Z,78.50
2017-08-19T08:50:56.939Z,79.40
2017-08-19T08:53:25.314Z,76.80
2017-08-19T08:55:53.590Z,72.50
2017-08-19T08:58:21.974Z,69.00
2017-08-19T09:00:50.264Z,67.80
2017-08-19T09:03:18.624Z,68.70
2017-08-19T09:05:46.875Z,65.20
2017-08-19T09:08:15.183Z,59.90
2017-08-19T09:10:43.455Z,62.60
2017-08-19T09:13:11.738Z,65.30
2017-08-19T09:15:39.993Z,64.30
2017-08-19T09:18:08.282Z,62.90
2017-08-19T09:20:36.563Z,61.10
2017-08-19T09:23:04.851Z,58.50
2017-08-19T09:25:33.114Z,59.90
2017-08-19T09:28:01.398Z,59.10
2017-08-19T09:30:29.648Z,57.60
2017-08-19T09:32:57.930Z,56.50
2017-08-19T09:35:26.219Z,58.00
2017-08-19T09:37:54.502Z,59.40
2017-08-19T09:40:22.755Z,59.90
2017-08-19T09:42:51.043Z,58.30
2017-08-19T09:45:19.322Z,56.60
2017-08-19T09:47:47.706Z,58.30
2017-08-19T09:50:15.978Z,56.70
2017-08-19T09:52:44.267Z,56.90
2017-08-19T09:55:12.530Z,56.60
2017-08-19T09:57:40.814Z,55.40
2017-08-19T10:00:09.062Z,59.50
2017-08-19T10:02:37.339Z,61.10
2017-08-19T10:05:05.614Z,61.80
2017-08-19T10:07:42.923Z,62.20
2017-08-19T10:10:23.283Z,65.60
2017-08-19T10:12:52.482Z,68.20
2017-08-19T10:15:20.776Z,67.70
2017-08-19T10:17:49.140Z,67.40
2017-08-19T10:20:17.419Z,67.90
2017-08-19T10:22:45.751Z,69.30
2017-08-19T10:25:14.066Z,67.30
2017-08-19T10:27:42.343Z,66.60
2017-08-19T10:30:10.719Z,65.20
2017-08-19T10:32:39.103Z,66.10
2017-08-19T10:35:07.359Z,67.40
2017-08-19T10:37:35.654Z,67.20
2017-08-19T10:40:04.035Z,67.50
2017-08-19T10:42:32.310Z,66.40
2017-08-19T10:45:00.692Z,65.10
2017-08-19T10:47:28.967Z,64.40
2017-08-19T10:49:57.218Z,65.00
2017-08-19T10:52:26.434Z,64.10
2017-08-19T10:54:54.734Z,64.40
2017-08-19T10:57:23.099Z,61.90
2017-08-19T10:59:51.371Z,58.80
2017-08-19T11:02:19.750Z,59.90
2017-08-19T11:04:48.027Z,58.00
2017-08-19T11:07:16.407Z,56.60
2017-08-19T11:09:44.782Z,56.60
2017-08-19T11:12:13.078Z,58.30
2017-08-19T11:14:41.438Z,57.50
2017-08-19T11:17:09.682Z,56.70
2017-08-19T11:19:37.974Z,57.50
2017-08-19T11:22:06.222Z,58.00
2017-08-19T11:24:34.507Z,58.10
2017-08-19T11:27:02.841Z,60.10
2017-08-19T11:29:31.203Z,57.80
2017-08-19T11:31:59.811Z,58.00
2017-08-19T11:34:28.087Z,53.40
2017-08-19T11:36:56.423Z,53.20
2017-08-19T11:39:24.732Z,54.30
2017-08-19T11:41:52.967Z,54.20
2017-08-19T11:44:21.242Z,55.00
2017-08-19T11:46:49.542Z,53.60
2017-08-19T11:49:17.838Z,51.40
2017-08-19T11:51:46.075Z,53.80
2017-08-19T11:54:14.354Z,52.20
2017-08-19T11:56:42.666Z,54.50
2017-08-19T11:59:10.943Z,54.40
2017-08-19T12:01:39.205Z,54.40
2017-08-19T12:04:07.571Z,56.30
2017-08-19T12:06:35.857Z,54.70
2017-08-19T12:09:04.135Z,54.30
2017-08-19T12:11:32.383Z,55.50
2017-08-19T12:14:00.673Z,56.30
2017-08-19T12:16:28.967Z,54.00
2017-08-19T12:18:57.335Z,57.60
2017-08-19T12:21:25.719Z,57.90
2017-08-19T12:23:54.982Z,58.50
2017-08-19T12:26:23.313Z,56.60
2017-08-19T12:28:51.576Z,57.20
2017-08-19T12:31:19.962Z,56.90
2017-08-19T12:33:48.203Z,56.80
2017-08-19T12:36:16.502Z,57.10
2017-08-19T12:38:44.783Z,57.70
2017-08-19T12:41:13.067Z,58.10
2017-08-19T12:43:41.319Z,56.10
2017-08-19T12:46:09.602Z,57.70
2017-08-19T12:48:37.854Z,59.90
2017-08-19T12:51:06.164Z,60.10
2017-08-19T12:53:34.442Z,59.00
2017-08-19T12:56:02.714Z,57.30
2017-08-19T12:58:30.996Z,56.60
2017-08-19T13:00:59.386Z,55.60
2017-08-19T13:03:27.649Z,56.20
2017-08-19T13:05:56.031Z,55.20
2017-08-19T13:08:24.402Z,55.80
2017-08-19T13:10:52.697Z,55.70
2017-08-19T13:13:21.058Z,56.60
2017-08-19T13:15:49.334Z,57.10
2017-08-19T13:18:17.619Z,59.40
2017-08-19T13:20:45.991Z,60.10
2017-08-19T13:23:14.283Z,60.00
2017-08-19T13:25:42.556Z,60.10
2017-08-19T13:28:10.819Z,59.10
2017-08-19T13:30:39.153Z,59.80
2017-08-19T13:33:08.315Z,59.90
2017-08-19T13:35:36.675Z,61.70
2017-08-19T13:38:05.050Z,61.00
2017-08-19T13:40:33.462Z,61.10
2017-08-19T13:43:01.807Z,60.80
2017-08-19T13:45:30.186Z,60.00
2017-08-19T13:47:58.550Z,61.10
2017-08-19T13:50:26.860Z,60.50
2017-08-19T13:52:55.207Z,61.90
2017-08-19T13:55:24.327Z,61.70
2017-08-19T13:57:52.698Z,60.70
2017-08-19T14:00:20.976Z,60.40
2017-08-19T14:02:49.346Z,60.00
2017-08-19T14:05:17.604Z,59.70
2017-08-19T14:07:45.898Z,60.40
2017-08-19T14:10:14.287Z,58.80
2017-08-19T14:12:42.663Z,61.20
2017-08-19T14:15:10.942Z,61.10
2017-08-19T14:17:39.239Z,59.90
2017-08-19T14:20:07.511Z,60.50
2017-08-19T14:22:35.887Z,58.80
2017-08-19T14:25:04.247Z,60.70
2017-08-19T14:27:32.589Z,60.00
2017-08-19T14:30:00.855Z,60.20
2017-08-19T14:32:29.179Z,60.70
2017-08-19T14:34:57.454Z,60.40
2017-08-19T14:37:26.655Z,61.40
2017-08-19T14:39:55.899Z,60.00
2017-08-19T14:42:24.244Z,59.20
2017-08-19T14:44:52.508Z,59.10
2017-08-19T14:47:20.908Z,58.30
2017-08-19T14:49:49.166Z,57.90
2017-08-19T14:52:17.542Z,57.60
2017-08-19T14:54:45.798Z,59.00
2017-08-19T14:57:14.078Z,58.50
2017-08-19T14:59:42.371Z,58.90
2017-08-19T15:02:10.742Z,58.30
2017-08-19T15:04:39.022Z,58.50
2017-08-19T15:07:07.276Z,58.50
2017-08-19T15:09:35.571Z,57.30
2017-08-19T15:12:03.856Z,58.30
2017-08-19T15:14:32.230Z,58.60
2017-08-19T15:17:00.483Z,57.20
2017-08-19T15:19:29.115Z,58.30
2017-08-19T15:21:57.584Z,57.50
2017-08-19T15:24:25.952Z,58.70
2017-08-19T15:26:54.231Z,57.40
2017-08-19T15:29:22.835Z,57.80
2017-08-19T15:31:51.191Z,58.40
2017-08-19T15:34:19.907Z,59.20
2017-08-19T15:36:48.255Z,58.80
2017-08-19T15:39:16.635Z,58.70
2017-08-19T15:41:44.887Z,59.40
2017-08-19T15:44:13.190Z,59.90
2017-08-19T15:46:41.438Z,58.60
2017-08-19T15:49:09.743Z,58.90
2017-08-19T15:51:37.998Z,59.20
2017-08-19T15:54:06.294Z,58.90
2017-08-19T15:56:34.538Z,58.50
2017-08-19T15:59:02.847Z,59.40
2017-08-19T16:01:31.251Z,61.20
2017-08-19T16:03:59.519Z,61.20
2017-08-19T16:06:27.774Z,61.60
2017-08-19T16:08:56.050Z,60.40
2017-08-19T16:11:24.346Z,61.70
2017-08-19T16:13:52.715Z,61.30
2017-08-19T16:16:21.002Z,60.50
2017-08-19T16:18:49.362Z,58.90
2017-08-19T16:21:17.621Z,59.60
2017-08-19T16:23:45.914Z,59.60
2017-08-19T16:26:14.195Z,59.80
2017-08-19T16:28:42.588Z,59.50
2017-08-19T16:31:10.848Z,59.70
2017-08-19T16:33:39.237Z,58.90
2017-08-19T16:36:07.482Z,59.90
2017-08-19T16:38:35.779Z,61.10
2017-08-19T16:41:04.060Z,60.60
2017-08-19T16:43:32.342Z,61.80
2017-08-19T16:46:00.606Z,62.10
2017-08-19T16:48:28.986Z,62.50
2017-08-19T16:50:57.265Z,62.00
2017-08-19T16:53:25.515Z,62.20
2017-08-19T16:55:53.799Z,62.40
2017-08-19T16:58:22.095Z,61.60
2017-08-19T17:00:50.470Z,62.50
2017-08-19T17:03:18.746Z,62.00
2017-08-19T17:05:47.126Z,63.10
2017-08-19T17:08:15.405Z,62.50
2017-08-19T17:10:43.691Z,63.30
2017-08-19T17:13:11.959Z,63.00
2017-08-19T17:15:40.334Z,62.40
2017-08-19T17:18:08.629Z,60.50
2017-08-19T17:20:37.007Z,60.70
2017-08-19T17:23:05.279Z,60.80
2017-08-19T17:25:33.646Z,60.80
2017-08-19T17:28:01.922Z,62.20
2017-08-19T17:30:30.203Z,61.20
2017-08-19T17:32:58.476Z,60.90
2017-08-19T17:35:26.851Z,61.20
2017-08-19T17:37:55.150Z,61.70
2017-08-19T17:40:23.427Z,61.60
2017-08-19T17:42:51.793Z,62.30
2017-08-19T17:45:20.078Z,62.50
2017-08-19T17:47:48.443Z,63.20
2017-08-19T17:50:16.715Z,62.20
2017-08-19T17:52:45.003Z,62.10
2017-08-19T17:55:13.271Z,63.30
2017-08-19T17:57:41.547Z,63.90
2017-08-19T18:00:09.847Z,63.30
2017-08-19T18:02:38.748Z,64.20
2017-08-19T18:05:07.770Z,64.50
2017-08-19T18:07:36.102Z,64.50
2017-08-19T18:10:04.339Z,63.00
2017-08-19T18:12:32.627Z,64.60
2017-08-19T18:15:00.875Z,64.40
2017-08-19T18:17:29.183Z,64.50
2017-08-19T18:19:57.435Z,65.80
2017-08-19T18:22:25.843Z,66.40
2017-08-19T18:24:54.124Z,65.50
2017-08-19T18:27:22.517Z,66.10
2017-08-19T18:29:50.774Z,65.00
2017-08-19T18:32:19.154Z,64.80
2017-08-19T18:34:47.448Z,65.30
2017-08-19T18:37:15.812Z,65.60
2017-08-19T18:39:44.066Z,66.20
2017-08-19T18:42:12.363Z,66.40
2017-08-19T18:44:40.638Z,67.00
2017-08-19T18:47:09.023Z,68.20
2017-08-19T18:49:37.304Z,66.90
2017-08-19T18:52:05.588Z,68.80
2017-08-19T18:54:34.182Z,68.40
2017-08-19T18:57:02.530Z,68.10
2017-08-19T18:59:30.811Z,68.80
2017-08-19T19:01:59.103Z,68.00
2017-08-19T19:04:27.354Z,68.90
2017-08-19T19:06:55.798Z,69.20
2017-08-19T19:09:24.129Z,70.10
2017-08-19T19:11:52.499Z,69.50
2017-08-19T19:14:20.878Z,69.90
2017-08-19T19:16:49.141Z,70.30
2017-08-19T19:19:17.430Z,71.50
2017-08-19T19:21:45.720Z,71.60
2017-08-19T19:24:14.003Z,71.20
2017-08-19T19:26:42.366Z,72.30
2017-08-19T19:29:10.743Z,71.10
2017-08-19T19:31:39.019Z,70.70
2017-08-19T19:34:07.298Z,70.80
2017-08-19T19:36:35.586Z,70.50
2017-08-19T19:39:03.861Z,72.30
2017-08-19T19:41:32.139Z,71.50
2017-08-19T19:44:00.508Z,70.60
2017-08-19T19:46:28.780Z,70.80
2017-08-19T19:48:57.173Z,69.80
2017-08-19T19:51:25.438Z,70.70
2017-08-19T19:53:54.750Z,71.60
2017-08-19T19:56:23.035Z,71.00
2017-08-19T19:58:51.986Z,71.40
2017-08-19T20:01:20.279Z,71.10
2017-08-19T20:03:48.572Z,71.90
2017-08-19T20:06:16.938Z,71.60
2017-08-19T20:08:45.210Z,70.70
2017-08-19T20:11:13.606Z,71.20
2017-08-19T20:13:41.966Z,70.90
2017-08-19T20:16:10.351Z,70.70
2017-08-19T20:18:38.728Z,70.00
2017-08-19T20:21:07.121Z,70.60
2017-08-19T20:23:35.398Z,70.90
2017-08-19T20:26:03.767Z,70.80
2017-08-19T20:28:32.034Z,70.80
2017-08-19T20:31:00.323Z,71.10
2017-08-19T20:33:28.608Z,70.10
2017-08-19T20:35:56.859Z,70.30
2017-08-19T20:38:25.110Z,70.80
2017-08-19T20:40:53.394Z,70.50
2017-08-19T20:43:21.650Z,71.00
2017-08-19T20:45:49.970Z,70.10
2017-08-19T20:48:18.226Z,70.90
2017-08-19T20:50:46.522Z,70.90
2017-08-19T20:53:14.798Z,70.40
2017-08-19T20:55:43.179Z,70.00
2017-08-19T20:58:11.457Z,70.30
2017-08-19T21:00:39.836Z,71.10
2017-08-19T21:03:08.090Z,69.70
2017-08-19T21:05:36.387Z,70.50
2017-08-19T21:08:04.659Z,70.10
2017-08-19T21:10:32.946Z,70.50
2017-08-19T21:13:01.210Z,70.30
2017-08-19T21:15:29.594Z,71.00
2017-08-19T21:17:58.203Z,71.30
2017-08-19T21:20:26.479Z,72.60
2017-08-19T21:22:55.167Z,71.60
2017-08-19T21:25:23.527Z,71.60
2017-08-19T21:27:51.794Z,71.10
2017-08-19T21:30:20.075Z,71.40
2017-08-19T21:32:48.451Z,71.20
2017-08-19T21:35:16.830Z,71.00
2017-08-19T21:37:45.210Z,71.30
2017-08-19T21:40:13.482Z,71.20
2017-08-19T21:42:41.862Z,71.80
2017-08-19T21:45:10.151Z,71.60
2017-08-19T21:47:38.519Z,71.60
2017-08-19T21:50:06.775Z,72.20
2017-08-19T21:52:35.077Z,71.60
2017-08-19T21:55:03.327Z,71.90
2017-08-19T21:57:32.467Z,72.40
2017-08-19T22:00:00.823Z,72.70
2017-08-19T22:02:29.219Z,73.10
2017-08-19T22:04:57.478Z,73.50
2017-08-19T22:07:25.858Z,73.10
2017-08-19T22:09:54.110Z,73.10
2017-08-19T22:12:22.410Z,73.50
2017-08-19T22:14:50.687Z,73.80
2017-08-19T22:17:18.979Z,73.50
2017-08-19T22:19:47.238Z,74.20
2017-08-19T22:22:15.619Z,74.60
2017-08-19T22:24:43.870Z,73.90
2017-08-19T22:27:12.174Z,74.00
2017-08-19T22:29:40.447Z,73.90
2017-08-19T22:32:08.731Z,74.30
2017-08-19T22:34:36.994Z,74.10
2017-08-19T22:37:05.379Z,73.90
2017-08-19T22:39:33.639Z,74.20
2017-08-19T22:42:02.824Z,74.20
2017-08-19T22:44:31.135Z,75.30
2017-08-19T22:46:59.382Z,75.50
2017-08-19T22:49:27.684Z,75.90
2017-08-19T22:51:55.958Z,76.30
2017-08-19T22:54:24.257Z,75.70
2017-08-19T22:56:52.614Z,75.60
2017-08-19T22:59:20.891Z,75.70
